.
WxDataArchive / Data Records for 2012-10-22
2012-10-21 October 2012 2012-10-23

Data Records for Monday, 22 October 2012

Time	Temp	Chill	HIndex	Humid	Dewpt	 Wind 	HiWind	WindDir	Rain 	Barom 
-----	----	-----	------	-----	-----	------	------	-------	-----	----- 
00:00	46.2	46.2	46.2	90	43.4	0	0	---	0.00	30.067 
00:05	46.2	46.2	46.2	90	43.4	0	0	---	0.00	30.067 
00:10	46.4	46.4	46.4	91	43.9	0	0	---	0.00	30.067 
00:15	46.4	46.4	46.4	91	43.9	0	0	---	0.00	30.064 
00:20	46.2	46.2	46.2	91	43.7	0	0	---	0.00	30.064 
00:25	46.2	46.2	46.2	91	43.7	0	0	---	0.00	30.064 
00:30	46.2	46.2	46.2	91	43.7	0	0	---	0.00	30.061 
00:35	46.1	46.1	46.1	92	43.9	0	0	---	0.00	30.061 
00:40	46.1	46.1	46.1	92	43.9	0	0	---	0.00	30.061 
00:45	46.1	46.1	46.1	92	43.9	0	0	---	0.00	30.056 
00:50	46.2	46.2	46.2	92	44.0	0	0	---	0.00	30.056 
00:55	46.2	46.2	46.2	92	44.0	0	0	---	0.00	30.056 
01:00	46.1	46.1	46.1	92	43.9	0	0	---	0.00	30.058 
01:05	46.1	46.1	46.1	92	43.9	0	0	---	0.00	30.058 
01:10	46.1	46.1	46.1	92	43.9	0	0	---	0.00	30.058 
01:15	46.1	46.1	46.1	92	43.9	0	0	---	0.00	30.056 
01:20	46.0	46.0	46.0	92	43.8	0	0	---	0.00	30.056 
01:25	45.8	45.8	45.8	92	43.6	0	0	---	0.00	30.056 
01:30	45.7	45.7	45.7	92	43.5	0	0	---	0.00	30.060 
01:35	45.5	45.5	45.5	92	43.3	0	0	---	0.00	30.060 
01:40	45.5	45.5	45.5	92	43.3	0	0	---	0.00	30.060 
01:45	45.4	45.4	45.4	92	43.2	0	0	---	0.00	30.063 
01:50	45.4	45.4	45.4	92	43.2	0	0	---	0.00	30.063 
01:55	45.4	45.4	45.4	92	43.2	0	0	---	0.00	30.063 
02:00	45.4	45.4	45.4	92	43.2	0	0	---	0.00	30.058 
02:05	45.2	45.2	45.2	92	43.0	0	0	---	0.00	30.058 
02:10	45.1	45.1	45.1	92	42.9	0	0	---	0.00	30.058 
02:15	44.9	44.9	44.9	92	42.7	0	0	---	0.00	30.051 
02:20	44.9	44.9	44.9	93	43.0	0	0	---	0.00	30.051 
02:25	44.9	44.9	44.9	93	43.0	0	0	---	0.00	30.051 
02:30	44.8	44.8	44.8	93	42.9	0	0	---	0.00	30.050 
02:35	44.6	44.6	44.6	93	42.7	0	0	---	0.00	30.050 
02:40	44.5	44.5	44.5	93	42.6	0	0	---	0.00	30.050 
02:45	44.5	44.5	44.5	93	42.6	0	0	---	0.00	30.052 
02:50	44.5	44.5	44.5	93	42.6	0	0	---	0.00	30.052 
02:55	44.6	44.6	44.6	93	42.7	0	0	---	0.00	30.052 
03:00	44.6	44.6	44.6	93	42.7	0	0	---	0.00	30.050 
03:05	44.8	44.8	44.8	93	42.9	0	0	---	0.00	30.050 
03:10	44.8	44.8	44.8	93	42.9	0	0	---	0.00	30.050 
03:15	44.8	44.8	44.8	93	42.9	0	0	---	0.00	30.048 
03:20	44.6	44.6	44.6	93	42.7	0	0	---	0.00	30.048 
03:25	44.6	44.6	44.6	93	42.7	0	0	---	0.00	30.048 
03:30	44.5	44.5	44.5	93	42.6	0	0	---	0.00	30.048 
03:35	44.5	44.5	44.5	93	42.6	0	0	---	0.00	30.048 
03:40	44.6	44.6	44.6	93	42.7	0	0	---	0.00	30.048 
03:45	44.5	44.5	44.5	93	42.6	0	0	---	0.00	30.049 
03:50	44.5	44.5	44.5	94	42.9	0	0	---	0.00	30.049 
03:55	44.5	44.5	44.5	94	42.9	0	0	---	0.00	30.049 
04:00	44.5	44.5	44.5	94	42.9	0	0	---	0.00	30.048 
04:05	44.5	44.5	44.5	94	42.9	0	0	---	0.00	30.048 
04:10	44.3	44.3	44.3	94	42.7	0	0	---	0.00	30.048 
04:15	44.2	44.2	44.2	94	42.6	0	0	---	0.00	30.047 
04:20	44.2	44.2	44.2	94	42.6	0	0	---	0.00	30.047 
04:25	44.2	44.2	44.2	94	42.6	0	0	---	0.00	30.047 
04:30	44.2	44.2	44.2	94	42.6	0	0	---	0.00	30.046 
04:35	44.3	44.3	44.3	94	42.7	0	0	---	0.00	30.046 
04:40	44.3	44.3	44.3	94	42.7	0	0	---	0.00	30.046 
04:45	44.3	44.3	44.3	94	42.7	0	0	---	0.00	30.048 
04:50	44.2	44.2	44.2	94	42.6	0	0	---	0.00	30.048 
04:55	44.2	44.2	44.2	94	42.6	0	0	---	0.00	30.048 
05:00	44.2	44.2	44.2	94	42.6	0	0	---	0.00	30.049 
05:05	44.2	44.2	44.2	94	42.6	0	0	---	0.00	30.049 
05:10	44.1	44.1	44.1	94	42.5	0	0	---	0.00	30.049 
05:15	44.1	44.1	44.1	94	42.5	0	0	---	0.00	30.049 
05:20	44.1	44.1	44.1	94	42.5	0	0	---	0.00	30.049 
05:25	44.2	44.2	44.2	94	42.6	0	0	---	0.00	30.049 
05:30	44.2	44.2	44.2	94	42.6	0	0	---	0.00	30.052 
05:35	44.2	44.2	44.2	94	42.6	0	0	---	0.00	30.052 
05:40	44.1	44.1	44.1	94	42.5	0	0	---	0.00	30.052 
05:45	44.1	44.1	44.1	94	42.5	0	0	---	0.00	30.050 
05:50	44.1	44.1	44.1	94	42.5	0	0	---	0.00	30.050 
05:55	44.1	44.1	44.1	94	42.5	0	0	---	0.00	30.050 
06:00	44.1	44.1	44.1	94	42.5	0	0	---	0.00	30.051 
06:05	43.9	43.9	43.9	94	42.3	0	0	---	0.00	30.051 
06:10	43.9	43.9	43.9	94	42.3	0	0	---	0.00	30.051 
06:15	43.8	43.8	43.8	94	42.2	0	0	---	0.00	30.053 
06:20	43.6	43.6	43.6	94	42.0	0	0	---	0.00	30.053 
06:25	43.6	43.6	43.6	94	42.0	0	0	---	0.00	30.053 
06:30	43.5	43.5	43.5	94	41.9	0	0	---	0.00	30.055 
06:35	43.5	43.5	43.5	94	41.9	0	0	---	0.00	30.055 
06:40	43.3	43.3	43.3	94	41.7	0	0	---	0.00	30.055 
06:45	43.3	43.3	43.3	94	41.7	0	0	---	0.00	30.056 
06:50	43.3	43.3	43.3	94	41.7	0	0	---	0.00	30.056 
06:55	43.3	43.3	43.3	94	41.7	0	0	---	0.00	30.056 
07:00	43.2	43.2	43.2	94	41.6	0	0	---	0.00	30.058 
07:05	43.2	43.2	43.2	94	41.6	0	0	---	0.00	30.058 
07:10	43.1	43.1	43.1	94	41.5	0	0	---	0.00	30.058 
07:15	43.1	43.1	43.1	94	41.5	0	0	---	0.00	30.063 
07:20	43.1	43.1	43.1	94	41.5	0	0	---	0.00	30.063 
07:25	43.1	43.1	43.1	95	41.8	0	0	---	0.00	30.063 
07:30	43.3	43.3	43.3	95	42.0	0	0	---	0.00	30.059 
07:35	43.5	43.5	43.5	95	42.2	0	0	---	0.00	30.059 
07:40	43.8	43.8	43.8	95	42.5	0	0	---	0.00	30.059 
07:45	43.9	43.9	43.9	95	42.6	0	1	248	0.00	30.057 
07:50	44.1	44.1	44.1	95	42.8	0	0	---	0.00	30.057 
07:55	44.1	44.1	44.1	95	42.8	0	0	---	0.00	30.057 
08:00	44.1	44.1	44.1	95	42.8	0	0	---	0.00	30.062 
08:05	43.9	43.9	43.9	95	42.6	0	0	---	0.00	30.062 
08:10	43.9	43.9	43.9	95	42.6	0	0	---	0.00	30.062 
08:15	43.9	43.9	43.9	95	42.6	0	0	---	0.00	30.067 
08:20	43.9	43.9	43.9	95	42.6	0	0	---	0.00	30.067 
08:25	43.9	43.9	43.9	95	42.6	0	0	---	0.00	30.067 
08:30	44.1	44.1	44.1	95	42.8	0	0	---	0.00	30.073 
08:35	44.3	44.3	44.3	95	43.0	0	0	---	0.00	30.073 
08:40	44.5	44.5	44.5	95	43.2	0	0	---	0.00	30.073 
08:45	44.6	44.6	44.6	95	43.3	0	0	---	0.00	30.072 
08:50	44.8	44.8	44.8	95	43.5	0	0	---	0.00	30.072 
08:55	45.1	45.1	45.1	95	43.8	0	0	---	0.00	30.072 
09:00	45.5	45.5	45.5	96	44.4	0	0	---	0.00	30.071 
09:05	46.1	46.1	46.1	96	45.0	0	0	---	0.00	30.071 
09:10	46.8	46.8	46.8	96	45.7	0	0	---	0.00	30.071 
09:15	47.6	47.6	47.6	96	46.5	0	0	---	0.00	30.069 
09:20	48.2	48.2	48.2	96	47.1	0	0	---	0.00	30.069 
09:25	48.8	48.8	48.8	96	47.7	0	1	248	0.00	30.069 
09:30	49.2	49.2	49.2	96	48.1	0	1	248	0.00	30.067 
09:35	49.6	49.6	49.6	95	48.2	0	0	---	0.00	30.067 
09:40	50.1	50.1	50.1	95	48.7	0	0	---	0.00	30.067 
09:45	50.7	50.7	50.7	95	49.3	0	0	---	0.00	30.070 
09:50	51.4	51.4	51.4	95	50.0	0	0	---	0.00	30.070 
09:55	52.5	52.5	52.5	93	50.5	0	1	248	0.00	30.070 
10:00	53.6	53.6	53.6	92	51.3	0	0	---	0.00	30.064 
10:05	54.8	54.8	54.8	88	51.3	0	2	248	0.00	30.064 
10:10	55.7	55.7	55.7	87	51.9	0	1	248	0.00	30.064 
10:15	56.9	56.9	56.9	83	51.8	0	1	248	0.00	30.051 
10:20	58.3	58.3	58.3	79	51.8	0	2	248	0.00	30.051 
10:25	59.5	59.5	59.5	76	51.9	0	3	112	0.00	30.051 
10:30	60.7	60.7	60.7	73	52.0	0	2	112	0.00	30.046 
10:35	62.0	62.0	62.0	70	52.1	0	2	112	0.00	30.046 
10:40	63.1	63.1	63.1	70	53.2	0	1	112	0.00	30.046 
10:45	63.9	63.9	63.9	66	52.3	1	3	248	0.00	30.045 
10:50	64.5	64.5	64.5	64	52.0	0	2	248	0.00	30.045 
10:55	64.8	64.8	64.8	64	52.3	1	4	248	0.00	30.045 
11:00	65.2	65.2	65.2	63	52.3	0	2	248	0.00	30.046 
11:05	65.5	65.5	65.5	62	52.1	0	1	248	0.00	30.046 
11:10	66.1	66.1	66.1	60	51.8	1	3	270	0.00	30.046 
11:15	66.6	66.6	66.6	62	53.2	0	2	270	0.00	30.044 
11:20	66.9	66.9	66.9	59	52.1	0	3	270	0.00	30.044 
11:25	66.8	66.8	66.8	59	52.0	0	2	270	0.00	30.044 
11:30	66.6	66.6	66.6	60	52.3	0	2	270	0.00	30.045 
11:35	66.1	66.1	66.1	61	52.3	0	2	270	0.00	30.045 
11:40	66.0	66.0	66.0	63	53.0	0	1	270	0.00	30.045 
11:45	66.4	66.4	66.4	61	52.5	0	2	270	0.00	30.046 
11:50	66.8	66.8	66.8	60	52.5	0	3	270	0.00	30.046 
11:55	67.3	67.3	67.3	61	53.4	0	2	270	0.00	30.046 
12:00	67.6	67.6	67.6	60	53.2	1	3	68	0.00	30.038 
12:05	67.8	67.8	67.8	60	53.4	0	2	68	0.00	30.038 
12:10	68.1	68.1	68.1	59	53.2	0	2	68	0.00	30.038 
12:15	68.6	68.6	68.6	58	53.2	0	1	68	0.00	30.028 
12:20	68.9	68.9	68.9	58	53.5	0	2	68	0.00	30.028 
12:25	69.3	69.3	69.3	57	53.4	0	2	68	0.00	30.028 
12:30	69.1	69.1	69.1	56	52.7	0	3	68	0.00	30.031 
12:35	68.8	68.8	68.8	56	52.5	0	2	68	0.00	30.031 
12:40	68.4	68.4	68.4	56	52.1	0	2	270	0.00	30.031 
12:45	68.1	68.1	68.1	57	52.3	0	1	270	0.00	30.032 
12:50	67.9	67.9	67.9	59	53.0	0	1	270	0.00	30.032 
12:55	67.8	67.8	67.8	59	52.9	0	2	270	0.00	30.032 
13:00	68.1	68.1	68.1	58	52.8	0	4	90	0.00	30.024 
13:05	68.6	68.6	68.6	58	53.2	0	2	90	0.00	30.024 
13:10	69.3	69.3	69.3	58	53.9	0	1	90	0.00	30.024 
13:15	69.6	69.6	69.6	57	53.7	0	3	90	0.00	30.025 
13:20	69.9	69.9	69.9	58	54.4	0	2	90	0.00	30.025 
13:25	70.1	70.1	70.1	56	53.7	1	3	90	0.00	30.025 
13:30	70.4	70.4	70.4	57	54.4	0	1	90	0.00	30.024 
13:35	70.6	70.6	70.6	58	55.1	0	1	90	0.00	30.024 
13:40	70.8	70.8	70.8	57	54.8	0	2	90	0.00	30.024 
13:45	70.9	70.9	70.9	57	54.9	0	1	90	0.00	30.015 
13:50	70.9	70.9	70.9	56	54.4	0	1	90	0.00	30.015 
13:55	71.1	71.1	71.1	58	55.6	0	1	90	0.00	30.015 
14:00	71.5	71.5	71.5	58	55.9	0	1	90	0.00	30.017 
14:05	71.6	71.6	71.6	57	55.5	0	1	90	0.00	30.017 
14:10	71.6	71.6	71.6	57	55.5	0	0	---	0.00	30.017 
14:15	71.6	71.6	71.6	56	55.1	0	1	90	0.00	30.012 
14:20	71.8	71.8	71.8	57	55.7	0	1	90	0.00	30.012 
14:25	71.8	71.8	71.8	57	55.7	0	1	90	0.00	30.012 
14:30	72.1	72.1	72.1	58	56.5	0	1	90	0.00	30.007 
14:35	72.3	72.3	72.3	57	56.2	0	1	90	0.00	30.007 
14:40	72.7	72.7	72.7	58	57.1	0	1	90	0.00	30.007 
14:45	72.8	72.8	72.8	57	56.7	0	1	90	0.00	30.003 
14:50	73.2	73.2	73.2	56	56.5	1	2	90	0.00	30.003 
14:55	73.3	73.3	73.3	55	56.1	0	2	90	0.00	30.003 
15:00	73.3	73.3	73.3	56	56.6	0	2	90	0.00	29.999 
15:05	73.3	73.3	73.3	55	56.1	0	2	90	0.00	29.999 
15:10	73.3	73.3	73.3	55	56.1	1	3	90	0.00	29.999 
15:15	73.5	73.5	73.5	54	55.8	1	4	270	0.00	30.001 
15:20	73.5	73.5	73.5	54	55.8	1	2	270	0.00	30.001 
15:25	73.3	73.3	73.3	54	55.6	1	5	248	0.00	30.001 
15:30	73.2	73.2	73.2	54	55.5	1	3	248	0.00	30.012 
15:35	72.8	72.8	72.8	55	55.7	1	5	248	0.00	30.012 
15:40	72.7	72.7	72.7	55	55.6	1	3	248	0.00	30.012 
15:45	72.5	72.5	72.5	56	55.9	0	2	248	0.00	30.013 
15:50	72.5	72.5	72.5	56	55.9	1	5	248	0.00	30.013 
15:55	72.7	72.7	72.7	55	55.6	1	4	248	0.00	30.013 
16:00	72.7	72.7	72.7	56	56.1	0	3	248	0.00	30.011 
16:05	72.7	72.7	72.7	56	56.1	0	2	248	0.00	30.011 
16:10	72.5	72.5	72.5	56	55.9	0	3	248	0.00	30.011 
16:15	72.3	72.3	72.3	58	56.7	1	5	248	0.00	30.008 
16:20	71.8	71.8	71.8	61	57.6	2	6	248	0.00	30.008 
16:25	71.3	71.3	71.3	62	57.6	1	3	248	0.00	30.008 
16:30	70.8	70.8	70.8	63	57.6	0	1	248	0.00	30.004 
16:35	70.4	70.4	70.4	64	57.6	0	1	270	0.00	30.004 
16:40	70.3	70.3	70.3	65	58.0	0	2	270	0.00	30.004 
16:45	69.9	69.9	69.9	67	58.4	0	3	270	0.00	29.978 
16:50	69.8	69.8	69.8	68	58.7	0	3	270	0.00	29.978 
16:55	69.4	69.4	69.4	69	58.8	2	4	90	0.00	29.978 
17:00	69.1	69.1	69.1	69	58.5	1	5	68	0.00	29.976 
17:05	68.8	68.8	68.8	71	59.0	0	4	68	0.00	29.976 
17:10	68.4	68.4	68.4	72	59.0	0	2	315	0.00	29.976 
17:15	68.3	68.3	68.3	73	59.3	1	5	270	0.00	29.961 
17:20	67.9	67.9	67.9	73	58.9	2	6	90	0.00	29.961 
17:25	67.6	67.6	67.6	74	59.0	1	6	112	0.00	29.961 
17:30	67.4	67.4	67.4	74	58.8	0	4	68	0.00	29.962 
17:35	67.3	67.3	67.3	75	59.1	0	2	270	0.00	29.962 
17:40	67.3	67.3	67.3	75	59.1	0	2	248	0.00	29.962 
17:45	67.1	67.1	67.1	75	58.9	0	3	270	0.00	29.953 
17:50	66.9	66.9	66.9	76	59.1	0	2	270	0.00	29.953 
17:55	66.9	66.9	66.9	76	59.1	0	2	270	0.00	29.953 
18:00	66.8	66.8	66.8	77	59.3	0	2	270	0.00	29.974 
18:05	66.8	66.8	66.8	77	59.3	0	2	270	0.00	29.974 
18:10	66.6	66.6	66.6	77	59.2	0	1	270	0.00	29.974 
18:15	66.4	66.4	66.4	77	59.0	0	2	270	0.00	29.987 
18:20	66.4	66.4	66.4	78	59.3	0	2	270	0.00	29.987 
18:25	66.3	66.3	66.3	78	59.2	0	1	270	0.00	29.987 
18:30	66.1	66.1	66.1	78	59.0	0	1	270	0.00	29.984 
18:35	66.1	66.1	66.1	78	59.0	0	1	270	0.00	29.984 
18:40	66.0	66.0	66.0	79	59.3	0	2	270	0.00	29.984 
18:45	65.8	65.8	65.8	79	59.1	0	1	270	0.00	29.980 
18:50	65.8	65.8	65.8	79	59.1	0	1	270	0.00	29.980 
18:55	65.6	65.6	65.6	79	58.9	0	1	270	0.00	29.980 
19:00	65.5	65.5	65.5	80	59.2	0	1	270	0.00	29.980 
19:05	65.3	65.3	65.3	80	59.0	0	1	270	0.00	29.980 
19:10	65.2	65.2	65.2	80	58.9	0	1	270	0.00	29.980 
19:15	65.2	65.2	65.2	80	58.9	0	1	270	0.00	29.977 
19:20	65.0	65.0	65.0	80	58.7	0	1	270	0.00	29.977 
19:25	65.0	65.0	65.0	81	59.0	0	0	---	0.00	29.977 
19:30	64.8	64.8	64.8	81	58.8	0	0	---	0.00	29.983 
19:35	64.8	64.8	64.8	81	58.8	0	1	270	0.00	29.983 
19:40	64.7	64.7	64.7	81	58.7	0	0	---	0.00	29.983 
19:45	64.5	64.5	64.5	81	58.5	0	0	---	0.00	29.983 
19:50	64.3	64.3	64.3	82	58.7	0	0	---	0.00	29.983 
19:55	64.2	64.2	64.2	82	58.6	0	0	---	0.00	29.983 
20:00	63.9	63.9	63.9	82	58.3	0	0	---	0.00	29.983 
20:05	63.7	63.7	63.7	83	58.4	0	0	---	0.00	29.983 
20:10	63.4	63.4	63.4	83	58.1	0	0	---	0.00	29.983 
20:15	62.9	62.9	62.9	84	58.0	0	0	---	0.00	29.979 
20:20	62.6	62.6	62.6	84	57.7	0	0	---	0.00	29.979 
20:25	62.3	62.3	62.3	85	57.7	0	0	---	0.00	29.979 
20:30	62.0	62.0	62.0	85	57.4	0	0	---	0.00	29.973 
20:35	61.8	61.8	61.8	86	57.6	0	0	---	0.00	29.973 
20:40	61.5	61.5	61.5	86	57.3	0	0	---	0.00	29.973 
20:45	61.3	61.3	61.3	87	57.4	0	1	270	0.00	29.969 
20:50	61.3	61.3	61.3	88	57.7	0	1	270	0.00	29.969 
20:55	61.3	61.3	61.3	88	57.7	0	2	270	0.00	29.969 
21:00	61.5	61.5	61.5	88	57.9	0	2	270	0.00	29.961 
21:05	61.5	61.5	61.5	88	57.9	0	0	---	0.00	29.961 
21:10	61.6	61.6	61.6	88	58.0	0	1	270	0.00	29.961 
21:15	62.0	62.0	62.0	88	58.4	0	2	270	0.00	29.953 
21:20	62.0	62.0	62.0	88	58.4	0	2	270	0.00	29.953 
21:25	62.1	62.1	62.1	87	58.2	0	4	270	0.00	29.953 
21:30	62.4	62.4	62.4	85	57.8	0	1	112	0.00	29.943 
21:35	62.7	62.7	62.7	84	57.8	0	1	112	0.00	29.943 
21:40	63.2	63.2	63.2	84	58.3	0	2	112	0.00	29.943 
21:45	63.4	63.4	63.4	84	58.5	1	4	292	0.02	29.976 
21:50	63.5	63.5	63.5	85	58.9	1	6	68	0.06	29.976 
21:55	63.4	63.4	63.4	86	59.1	0	2	248	0.00	29.976 
22:00	63.2	63.2	63.2	86	58.9	1	3	248	0.00	29.960 
22:05	63.2	63.2	63.2	84	58.3	2	4	45	0.00	29.960 
22:10	63.4	63.4	63.4	83	58.1	2	4	90	0.00	29.960 
22:15	63.5	63.5	63.5	81	57.6	2	5	90	0.00	29.941 
22:20	63.7	63.7	63.7	81	57.8	1	3	112	0.00	29.941 
22:25	63.7	63.7	63.7	81	57.8	0	2	112	0.00	29.941 
22:30	63.7	63.7	63.7	81	57.8	0	2	68	0.00	29.947 
22:35	63.7	63.7	63.7	81	57.8	0	4	68	0.00	29.947 
22:40	63.7	63.7	63.7	81	57.8	1	3	68	0.00	29.947 
22:45	63.9	63.9	63.9	81	57.9	1	3	68	0.00	29.945 
22:50	63.9	63.9	63.9	81	57.9	1	3	68	0.00	29.945 
22:55	64.2	64.2	64.2	80	57.9	1	5	90	0.00	29.945 
23:00	64.3	64.3	64.3	78	57.3	0	5	90	0.00	29.949 
23:05	64.7	64.7	64.7	76	57.0	1	4	90	0.00	29.949 
23:10	65.3	65.3	65.3	73	56.4	2	5	90	0.00	29.949 
23:15	66.0	66.0	66.0	72	56.7	2	4	90	0.00	29.945 
23:20	66.3	66.3	66.3	70	56.2	1	5	112	0.00	29.945 
23:25	66.4	66.4	66.4	70	56.3	1	4	45	0.00	29.945 
23:30	66.4	66.4	66.4	70	56.3	1	3	45	0.00	29.953 
23:35	66.4	66.4	66.4	70	56.3	0	4	45	0.00	29.953 
23:40	66.4	66.4	66.4	70	56.3	0	4	68	0.00	29.953 
23:45	66.3	66.3	66.3	70	56.2	1	4	90	0.00	29.957 
23:50	66.4	66.4	66.4	70	56.3	1	4	45	0.00	29.957 
23:55	66.3	66.3	66.3	70	56.2	1	4	22	0.00	29.957 

CoCoRaHS
IN-AL-39
A2 Web Hosting
Creative Commons License
GoDaddy
search engine by freefind advanced

loaded 2018-11-17 19:29:05 • last modified 2010-11-18 10:43:29
Privacy PolicyDisclaimer
• wx.awcolley.com is powered by PmWiki v.2002016 •
• all content (unless otherwise noted) © 2018 A W Colley